sensor_id;sensor_type;location;lat;lon;timestamp;pressure;altitude;pressure_sealevel;temperature;humidity
56241;BME280;42155;53.096;23.226;2023-01-29T00:01:51;100621.97;;;-0.59;69.06
56241;BME280;42155;53.096;23.226;2023-01-29T00:03:51;100633.31;;;-0.60;69.10
56241;BME280;42155;53.096;23.226;2023-01-29T00:05:51;100627.13;;;-0.57;68.75
56241;BME280;42155;53.096;23.226;2023-01-29T00:07:52;100619.28;;;-0.56;68.30
56241;BME280;42155;53.096;23.226;2023-01-29T00:09:52;100604.53;;;-0.57;68.93
56241;BME280;42155;53.096;23.226;2023-01-29T00:11:52;100598.41;;;-0.56;68.57
56241;BME280;42155;53.096;23.226;2023-01-29T00:13:53;100607.06;;;-0.54;68.71
56241;BME280;42155;53.096;23.226;2023-01-29T00:15:54;100607.06;;;-0.54;68.55
56241;BME280;42155;53.096;23.226;2023-01-29T00:17:55;100595.88;;;-0.57;68.79
56241;BME280;42155;53.096;23.226;2023-01-29T00:19:55;100598.50;;;-0.59;68.76
56241;BME280;42155;53.096;23.226;2023-01-29T00:21:56;100602.03;;;-0.60;68.61
56241;BME280;42155;53.096;23.226;2023-01-29T00:23:56;100614.06;;;-0.56;68.93
56241;BME280;42155;53.096;23.226;2023-01-29T00:25:58;100518.75;;;-1.00;68.77
56241;BME280;42155;53.096;23.226;2023-01-29T00:27:59;100585.50;;;-0.60;68.86
56241;BME280;42155;53.096;23.226;2023-01-29T00:29:59;100599.19;;;-0.50;68.16
56241;BME280;42155;53.096;23.226;2023-01-29T00:32:00;100602.66;;;-0.52;68.71
56241;BME280;42155;53.096;23.226;2023-01-29T00:34:00;100587.25;;;-0.61;68.25
56241;BME280;42155;53.096;23.226;2023-01-29T00:36:04;100605.38;;;-0.55;68.62
56241;BME280;42155;53.096;23.226;2023-01-29T00:38:05;100595.22;;;-0.67;68.56
56241;BME280;42155;53.096;23.226;2023-01-29T00:40:06;100603.00;;;-0.64;69.09
56241;BME280;42155;53.096;23.226;2023-01-29T00:42:06;100602.16;;;-0.66;68.48
56241;BME280;42155;53.096;23.226;2023-01-29T00:44:07;100583.09;;;-0.68;68.75
56241;BME280;42155;53.096;23.226;2023-01-29T00:46:07;100488.94;;;-1.24;68.48
56241;BME280;42155;53.096;23.226;2023-01-29T00:48:07;100602.75;;;-0.55;68.03
56241;BME280;42155;53.096;23.226;2023-01-29T00:50:09;100586.44;;;-0.63;68.45
56241;BME280;42155;53.096;23.226;2023-01-29T00:52:10;100578.56;;;-0.61;68.48
56241;BME280;42155;53.096;23.226;2023-01-29T00:54:10;100571.72;;;-0.65;68.22
56241;BME280;42155;53.096;23.226;2023-01-29T00:56:11;100569.84;;;-0.59;68.27
56241;BME280;42155;53.096;23.226;2023-01-29T00:58:11;100580.22;;;-0.57;68.53
56241;BME280;42155;53.096;23.226;2023-01-29T01:00:14;100572.34;;;-0.56;68.45
56241;BME280;42155;53.096;23.226;2023-01-29T01:02:15;100556.69;;;-0.54;68.11
56241;BME280;42155;53.096;23.226;2023-01-29T01:04:15;100563.59;;;-0.53;68.56
56241;BME280;42155;53.096;23.226;2023-01-29T01:06:15;100562.03;;;-0.59;68.22
56241;BME280;42155;53.096;23.226;2023-01-29T01:08:16;100467.72;;;-1.09;68.13
56241;BME280;42155;53.096;23.226;2023-01-29T01:10:25;100560.16;;;-0.54;68.38
56241;BME280;42155;53.096;23.226;2023-01-29T01:12:26;100555.72;;;-0.50;68.01
56241;BME280;42155;53.096;23.226;2023-01-29T01:14:27;100544.69;;;-0.60;67.92
56241;BME280;42155;53.096;23.226;2023-01-29T01:16:27;100560.31;;;-0.60;68.35
56241;BME280;42155;53.096;23.226;2023-01-29T01:18:30;100562.13;;;-0.63;68.30
56241;BME280;42155;53.096;23.226;2023-01-29T01:20:33;100536.56;;;-0.83;68.47
56241;BME280;42155;53.096;23.226;2023-01-29T01:22:33;100556.53;;;-0.82;68.47
56241;BME280;42155;53.096;23.226;2023-01-29T01:24:34;100565.16;;;-0.80;68.78
56241;BME280;42155;53.096;23.226;2023-01-29T01:26:34;100548.81;;;-0.88;69.17
56241;BME280;42155;53.096;23.226;2023-01-29T01:28:34;100528.31;;;-1.00;69.13
56241;BME280;42155;53.096;23.226;2023-01-29T01:30:35;100562.44;;;-0.75;69.11
56241;BME280;42155;53.096;23.226;2023-01-29T01:32:35;100560.53;;;-0.69;69.34
56241;BME280;42155;53.096;23.226;2023-01-29T01:34:36;100553.69;;;-0.73;68.69
56241;BME280;42155;53.096;23.226;2023-01-29T01:36:36;100567.22;;;-0.59;68.42
56241;BME280;42155;53.096;23.226;2023-01-29T01:38:37;100572.34;;;-0.54;69.00
56241;BME280;42155;53.096;23.226;2023-01-29T01:40:43;100531.03;;;-0.71;68.48
56241;BME280;42155;53.096;23.226;2023-01-29T01:42:46;100549.66;;;-0.52;68.51
56241;BME280;42155;53.096;23.226;2023-01-29T01:44:54;100560.09;;;-0.52;68.16
56241;BME280;42155;53.096;23.226;2023-01-29T01:46:55;100524.19;;;-0.75;68.56
56241;BME280;42155;53.096;23.226;2023-01-29T01:49:03;100573.31;;;-0.58;68.62
56241;BME280;42155;53.096;23.226;2023-01-29T01:51:04;100548.69;;;-0.82;68.66
56241;BME280;42155;53.096;23.226;2023-01-29T01:53:08;100567.28;;;-0.62;68.75
56241;BME280;42155;53.096;23.226;2023-01-29T01:55:12;100562.03;;;-0.60;68.45
56241;BME280;42155;53.096;23.226;2023-01-29T01:57:18;100553.38;;;-0.61;69.23
56241;BME280;42155;53.096;23.226;2023-01-29T01:59:20;100522.47;;;-0.76;69.27
56241;BME280;42155;53.096;23.226;2023-01-29T02:01:23;100551.59;;;-0.59;69.19
56241;BME280;42155;53.096;23.226;2023-01-29T02:03:26;100567.22;;;-0.59;69.12
56241;BME280;42155;53.096;23.226;2023-01-29T02:05:29;100561.31;;;-0.65;68.87
56241;BME280;42155;53.096;23.226;2023-01-29T02:07:30;100561.19;;;-0.61;69.12
56241;BME280;42155;53.096;23.226;2023-01-29T02:09:43;100568.19;;;-0.63;69.09
56241;BME280;42155;53.096;23.226;2023-01-29T02:11:45;100588.88;;;-0.55;68.73
56241;BME280;42155;53.096;23.226;2023-01-29T02:13:46;100551.09;;;-0.73;69.28
56241;BME280;42155;53.096;23.226;2023-01-29T02:15:46;100587.13;;;-0.55;69.31
56241;BME280;42155;53.096;23.226;2023-01-29T02:17:47;100581.19;;;-0.61;68.86
56241;BME280;42155;53.096;23.226;2023-01-29T02:19:54;100577.72;;;-0.62;69.31
56241;BME280;42155;53.096;23.226;2023-01-29T02:26:55;100560.38;;;-0.63;69.40
56241;BME280;42155;53.096;23.226;2023-01-29T02:29:24;100565.66;;;-0.66;69.44
56241;BME280;42155;53.096;23.226;2023-01-29T02:31:35;100553.53;;;-0.67;69.42
56241;BME280;42155;53.096;23.226;2023-01-29T02:34:01;100557.81;;;-0.64;69.68
56241;BME280;42155;53.096;23.226;2023-01-29T02:36:19;100545.59;;;-0.62;69.46
56241;BME280;42155;53.096;23.226;2023-01-29T02:38:33;100549.00;;;-0.60;69.18
56241;BME280;42155;53.096;23.226;2023-01-29T02:40:44;100504.53;;;-0.87;69.46
56241;BME280;42155;53.096;23.226;2023-01-29T02:42:52;100535.91;;;-0.57;69.22
56241;BME280;42155;53.096;23.226;2023-01-29T02:45:04;100537.72;;;-0.61;69.20
56241;BME280;42155;53.096;23.226;2023-01-29T02:47:17;100545.47;;;-0.58;69.01
56241;BME280;42155;53.096;23.226;2023-01-29T02:51:59;100539.38;;;-0.57;69.48
56241;BME280;42155;53.096;23.226;2023-01-29T02:54:16;100540.22;;;-0.56;69.53
56241;BME280;42155;53.096;23.226;2023-01-29T02:56:25;100546.38;;;-0.59;69.10
56241;BME280;42155;53.096;23.226;2023-01-29T02:58:41;100535.97;;;-0.60;69.79
56241;BME280;42155;53.096;23.226;2023-01-29T03:00:44;100529.94;;;-0.62;68.96
56241;BME280;42155;53.096;23.226;2023-01-29T03:02:52;100530.00;;;-0.64;69.36
56241;BME280;42155;53.096;23.226;2023-01-29T03:04:59;100499.09;;;-0.78;69.36
56241;BME280;42155;53.096;23.226;2023-01-29T03:07:09;100529.03;;;-0.60;69.19
56241;BME280;42155;53.096;23.226;2023-01-29T03:09:21;100526.50;;;-0.63;69.27
56241;BME280;42155;53.096;23.226;2023-01-29T03:11:22;100523.81;;;-0.60;69.80
56241;BME280;42155;53.096;23.226;2023-01-29T03:13:31;100516.75;;;-0.56;69.79
56241;BME280;42155;53.096;23.226;2023-01-29T03:15:43;100507.28;;;-0.60;69.43
56241;BME280;42155;53.096;23.226;2023-01-29T03:17:53;100508.97;;;-0.58;69.81
56241;BME280;42155;53.096;23.226;2023-01-29T03:19:55;100513.41;;;-0.60;69.63
56241;BME280;42155;53.096;23.226;2023-01-29T03:21:57;100512.63;;;-0.65;69.13
56241;BME280;42155;53.096;23.226;2023-01-29T03:23:58;100519.75;;;-0.71;69.72
56241;BME280;42155;53.096;23.226;2023-01-29T03:25:59;100485.38;;;-0.86;69.19
56241;BME280;42155;53.096;23.226;2023-01-29T03:28:02;100475.97;;;-0.91;69.52
56241;BME280;42155;53.096;23.226;2023-01-29T03:30:04;100497.22;;;-0.72;69.51
56241;BME280;42155;53.096;23.226;2023-01-29T03:32:07;100508.53;;;-0.73;70.39
56241;BME280;42155;53.096;23.226;2023-01-29T03:34:22;100504.19;;;-0.74;69.84
56241;BME280;42155;53.096;23.226;2023-01-29T03:36:36;100501.56;;;-0.73;69.46
56241;BME280;42155;53.096;23.226;2023-01-29T03:38:38;100498.00;;;-0.69;69.71
56241;BME280;42155;53.096;23.226;2023-01-29T03:40:46;100484.88;;;-0.66;69.80
56241;BME280;42155;53.096;23.226;2023-01-29T03:47:44;100391.50;;;-1.15;69.49
56241;BME280;42155;53.096;23.226;2023-01-29T03:52:17;100482.25;;;-0.66;69.48
56241;BME280;42155;53.096;23.226;2023-01-29T03:54:24;100445.50;;;-0.89;69.60
56241;BME280;42155;53.096;23.226;2023-01-29T04:01:55;100464.09;;;-0.69;69.31
56241;BME280;42155;53.096;23.226;2023-01-29T04:06:19;100472.84;;;-0.71;69.73
56241;BME280;42155;53.096;23.226;2023-01-29T04:08:25;100468.41;;;-0.68;69.62
56241;BME280;42155;53.096;23.226;2023-01-29T04:10:27;100464.91;;;-0.67;69.69
56241;BME280;42155;53.096;23.226;2023-01-29T04:12:35;100457.91;;;-0.65;69.23
56241;BME280;42155;53.096;23.226;2023-01-29T04:14:37;100410.00;;;-0.93;69.21
56241;BME280;42155;53.096;23.226;2023-01-29T04:16:40;100439.94;;;-0.75;69.66
56241;BME280;42155;53.096;23.226;2023-01-29T04:18:47;100431.31;;;-0.78;69.07
56241;BME280;42155;53.096;23.226;2023-01-29T04:20:48;100458.84;;;-0.67;69.33
56241;BME280;42155;53.096;23.226;2023-01-29T04:22:50;100455.38;;;-0.68;69.43
56241;BME280;42155;53.096;23.226;2023-01-29T04:24:50;100466.63;;;-0.66;69.78
56241;BME280;42155;53.096;23.226;2023-01-29T04:27:01;100375.91;;;-1.17;69.67
56241;BME280;42155;53.096;23.226;2023-01-29T04:29:30;100456.19;;;-0.66;69.98
56241;BME280;42155;53.096;23.226;2023-01-29T04:46:25;100445.88;;;-0.69;70.10
56241;BME280;42155;53.096;23.226;2023-01-29T04:50:40;100397.81;;;-0.91;69.98
56241;BME280;42155;53.096;23.226;2023-01-29T04:57:18;100432.00;;;-0.71;69.82
56241;BME280;42155;53.096;23.226;2023-01-29T04:59:32;100426.78;;;-0.71;69.84
56241;BME280;42155;53.096;23.226;2023-01-29T05:01:36;100343.13;;;-1.24;70.44
56241;BME280;42155;53.096;23.226;2023-01-29T05:03:40;100425.09;;;-0.72;69.78
56241;BME280;42155;53.096;23.226;2023-01-29T05:05:45;100377.22;;;-1.00;70.54
56241;BME280;42155;53.096;23.226;2023-01-29T05:07:47;100417.31;;;-0.73;70.15
56241;BME280;42155;53.096;23.226;2023-01-29T05:09:48;100427.66;;;-0.70;70.57
56241;BME280;42155;53.096;23.226;2023-01-29T05:11:50;100423.22;;;-0.67;70.18
56241;BME280;42155;53.096;23.226;2023-01-29T05:13:50;100421.41;;;-0.65;70.02
56241;BME280;42155;53.096;23.226;2023-01-29T05:16:18;100420.53;;;-0.64;69.95
56241;BME280;42155;53.096;23.226;2023-01-29T05:18:20;100410.19;;;-0.67;70.58
56241;BME280;42155;53.096;23.226;2023-01-29T05:20:20;100386.19;;;-0.80;70.24
56241;BME280;42155;53.096;23.226;2023-01-29T05:22:21;100381.84;;;-0.79;70.61
56241;BME280;42155;53.096;23.226;2023-01-29T05:24:23;100400.56;;;-0.65;70.04
56241;BME280;42155;53.096;23.226;2023-01-29T05:26:24;100410.97;;;-0.65;70.09
56241;BME280;42155;53.096;23.226;2023-01-29T05:28:26;100405.09;;;-0.71;70.48
56241;BME280;42155;53.096;23.226;2023-01-29T05:30:26;100406.91;;;-0.73;70.79
56241;BME280;42155;53.096;23.226;2023-01-29T05:32:26;100418.91;;;-0.69;70.26
56241;BME280;42155;53.096;23.226;2023-01-29T05:34:27;100416.19;;;-0.65;70.48
56241;BME280;42155;53.096;23.226;2023-01-29T05:36:27;100402.28;;;-0.64;70.42
56241;BME280;42155;53.096;23.226;2023-01-29T05:38:27;100407.31;;;-0.58;70.67
56241;BME280;42155;53.096;23.226;2023-01-29T05:40:28;100396.91;;;-0.58;69.99
56241;BME280;42155;53.096;23.226;2023-01-29T05:42:28;100393.63;;;-0.66;70.10
56241;BME280;42155;53.096;23.226;2023-01-29T05:44:29;100396.22;;;-0.64;70.70
56241;BME280;42155;53.096;23.226;2023-01-29T05:46:29;100402.28;;;-0.64;70.22
56241;BME280;42155;53.096;23.226;2023-01-29T05:48:29;100407.56;;;-0.67;70.89
56241;BME280;42155;53.096;23.226;2023-01-29T05:50:30;100402.34;;;-0.67;70.24
56241;BME280;42155;53.096;23.226;2023-01-29T05:52:30;100407.41;;;-0.61;70.43
56241;BME280;42155;53.096;23.226;2023-01-29T05:54:31;100411.63;;;-0.57;70.13
56241;BME280;42155;53.096;23.226;2023-01-29T05:56:31;100408.28;;;-0.62;70.18
56241;BME280;42155;53.096;23.226;2023-01-29T05:58:32;100402.28;;;-0.64;70.61
56241;BME280;42155;53.096;23.226;2023-01-29T06:00:33;100407.41;;;-0.61;70.87
56241;BME280;42155;53.096;23.226;2023-01-29T06:02:33;100416.06;;;-0.60;70.08
56241;BME280;42155;53.096;23.226;2023-01-29T06:04:33;100380.47;;;-0.92;70.50
56241;BME280;42155;53.096;23.226;2023-01-29T06:06:34;100415.28;;;-0.62;70.29
56241;BME280;42155;53.096;23.226;2023-01-29T06:08:34;100412.59;;;-0.61;70.97
56241;BME280;42155;53.096;23.226;2023-01-29T06:10:34;100363.13;;;-0.93;70.86
56241;BME280;42155;53.096;23.226;2023-01-29T06:12:35;100409.22;;;-0.63;70.42
56241;BME280;42155;53.096;23.226;2023-01-29T06:14:35;100407.56;;;-0.67;70.54
56241;BME280;42155;53.096;23.226;2023-01-29T06:16:35;100415.22;;;-0.61;70.61
56241;BME280;42155;53.096;23.226;2023-01-29T06:18:36;100417.75;;;-0.58;70.80
56241;BME280;42155;53.096;23.226;2023-01-29T06:20:38;100419.56;;;-0.61;70.55
56241;BME280;42155;53.096;23.226;2023-01-29T06:22:38;100410.00;;;-0.61;70.80
56241;BME280;42155;53.096;23.226;2023-01-29T06:24:38;100413.47;;;-0.60;70.46
56241;BME280;42155;53.096;23.226;2023-01-29T06:26:39;100422.97;;;-0.58;70.99
56241;BME280;42155;53.096;23.226;2023-01-29T06:28:39;100409.97;;;-0.59;70.57
56241;BME280;42155;53.096;23.226;2023-01-29T06:30:40;100393.69;;;-0.67;70.81
56241;BME280;42155;53.096;23.226;2023-01-29T06:32:40;100408.38;;;-0.65;71.23
56241;BME280;42155;53.096;23.226;2023-01-29T06:34:40;100409.28;;;-0.66;70.96
56241;BME280;42155;53.096;23.226;2023-01-29T06:36:41;100417.75;;;-0.58;70.79
56241;BME280;42155;53.096;23.226;2023-01-29T06:38:41;100391.22;;;-0.72;70.59
56241;BME280;42155;53.096;23.226;2023-01-29T06:40:41;100405.75;;;-0.65;71.37
56241;BME280;42155;53.096;23.226;2023-01-29T06:42:42;100414.25;;;-0.57;71.22
56241;BME280;42155;53.096;23.226;2023-01-29T06:44:43;100401.38;;;-0.63;71.29
56241;BME280;42155;53.096;23.226;2023-01-29T06:46:43;100411.38;;;-0.47;71.24
56241;BME280;42155;53.096;23.226;2023-01-29T06:48:44;100408.69;;;-0.44;71.16
56241;BME280;42155;53.096;23.226;2023-01-29T06:50:45;100397.81;;;-0.59;71.10
56241;BME280;42155;53.096;23.226;2023-01-29T06:52:45;100408.88;;;-0.50;70.71
56241;BME280;42155;53.096;23.226;2023-01-29T06:54:46;100382.97;;;-0.57;71.20
56241;BME280;42155;53.096;23.226;2023-01-29T06:56:46;100389.63;;;-0.46;70.41
56241;BME280;42155;53.096;23.226;2023-01-29T06:58:46;100371.56;;;-0.53;70.63
56241;BME280;42155;53.096;23.226;2023-01-29T07:00:47;100393.78;;;-0.39;71.31
56241;BME280;42155;53.096;23.226;2023-01-29T07:02:50;100389.34;;;-0.37;70.70
56241;BME280;42155;53.096;23.226;2023-01-29T07:04:51;100392.56;;;-0.28;71.12
56241;BME280;42155;53.096;23.226;2023-01-29T07:06:51;100370.94;;;-0.31;70.68
56241;BME280;42155;53.096;23.226;2023-01-29T07:08:51;100374.22;;;-0.24;70.65
56241;BME280;42155;53.096;23.226;2023-01-29T07:10:51;100362.22;;;-0.30;70.50
56241;BME280;42155;53.096;23.226;2023-01-29T07:12:52;100374.13;;;-0.21;70.31
56241;BME280;42155;53.096;23.226;2023-01-29T07:14:52;100373.41;;;-0.27;70.79
56241;BME280;42155;53.096;23.226;2023-01-29T07:16:52;100383.78;;;-0.25;70.68
56241;BME280;42155;53.096;23.226;2023-01-29T07:18:53;100335.78;;;-0.47;70.41
56241;BME280;42155;53.096;23.226;2023-01-29T07:20:53;100349.44;;;-0.39;70.60
56241;BME280;42155;53.096;23.226;2023-01-29T07:22:55;100366.91;;;-0.41;70.98
56241;BME280;42155;53.096;23.226;2023-01-29T07:24:56;100341.16;;;-0.54;71.30
56241;BME280;42155;53.096;23.226;2023-01-29T07:26:56;100379.75;;;-0.35;71.52
56241;BME280;42155;53.096;23.226;2023-01-29T07:28:57;100369.59;;;-0.44;71.03
56241;BME280;42155;53.096;23.226;2023-01-29T07:30:58;100372.78;;;-0.35;71.60
56241;BME280;42155;53.096;23.226;2023-01-29T07:33:03;100355.63;;;-0.43;71.28
56241;BME280;42155;53.096;23.226;2023-01-29T07:35:04;100369.91;;;-0.26;71.05
56241;BME280;42155;53.096;23.226;2023-01-29T07:37:04;100371.56;;;-0.23;71.13
56241;BME280;42155;53.096;23.226;2023-01-29T07:39:05;100367.94;;;-0.19;71.66
56241;BME280;42155;53.096;23.226;2023-01-29T07:41:05;100323.56;;;-0.45;71.22
56241;BME280;42155;53.096;23.226;2023-01-29T07:43:06;100346.56;;;-0.30;71.71
56241;BME280;42155;53.096;23.226;2023-01-29T07:45:07;100373.16;;;-0.19;71.43
56241;BME280;42155;53.096;23.226;2023-01-29T07:47:08;100337.03;;;-0.31;71.60
56241;BME280;42155;53.096;23.226;2023-01-29T07:49:08;100361.03;;;-0.20;71.83
56241;BME280;42155;53.096;23.226;2023-01-29T07:51:08;100375.69;;;-0.16;71.54
56241;BME280;42155;53.096;23.226;2023-01-29T07:53:12;100350.88;;;-0.29;71.96
56241;BME280;42155;53.096;23.226;2023-01-29T07:55:13;100361.81;;;-0.16;72.29
56241;BME280;42155;53.096;23.226;2023-01-29T07:57:14;100351.44;;;-0.18;72.34
56241;BME280;42155;53.096;23.226;2023-01-29T07:59:14;100346.91;;;-0.13;71.96
56241;BME280;42155;53.096;23.226;2023-01-29T08:01:14;100357.16;;;-0.07;71.63
56241;BME280;42155;53.096;23.226;2023-01-29T08:03:17;100341.59;;;-0.10;71.75
56241;BME280;42155;53.096;23.226;2023-01-29T08:05:18;100350.94;;;-0.03;71.69
56241;BME280;42155;53.096;23.226;2023-01-29T08:07:18;100328.13;;;-0.24;71.66
56241;BME280;42155;53.096;23.226;2023-01-29T08:09:18;100358.16;;;-0.11;71.83
56241;BME280;42155;53.096;23.226;2023-01-29T08:11:19;100358.00;;;-0.06;72.11
56241;BME280;42155;53.096;23.226;2023-01-29T08:13:19;100352.78;;;-0.06;71.44
56241;BME280;42155;53.096;23.226;2023-01-29T08:15:20;100347.41;;;0.00;71.93
56241;BME280;42155;53.096;23.226;2023-01-29T08:17:20;100341.50;;;-0.07;71.79
56241;BME280;42155;53.096;23.226;2023-01-29T08:19:20;100334.50;;;-0.05;71.26
56241;BME280;42155;53.096;23.226;2023-01-29T08:21:20;100362.72;;;0.11;71.46
56241;BME280;42155;53.096;23.226;2023-01-29T08:23:21;100355.66;;;0.14;70.94
56241;BME280;42155;53.096;23.226;2023-01-29T08:25:21;100361.59;;;0.18;71.42
56241;BME280;42155;53.096;23.226;2023-01-29T08:27:21;100363.34;;;0.19;70.78
56241;BME280;42155;53.096;23.226;2023-01-29T08:29:22;100357.38;;;0.14;71.08
56241;BME280;42155;53.096;23.226;2023-01-29T08:31:22;100341.09;;;0.07;71.20
56241;BME280;42155;53.096;23.226;2023-01-29T08:33:23;100331.69;;;0.02;71.22
56241;BME280;42155;53.096;23.226;2023-01-29T08:35:23;100329.84;;;0.05;71.24
56241;BME280;42155;53.096;23.226;2023-01-29T08:37:24;100335.50;;;0.18;71.23
56241;BME280;42155;53.096;23.226;2023-01-29T08:39:24;100329.34;;;0.20;70.82
56241;BME280;42155;53.096;23.226;2023-01-29T08:41:25;100343.31;;;0.19;71.46
56241;BME280;42155;53.096;23.226;2023-01-29T08:43:25;100345.00;;;0.20;71.77
56241;BME280;42155;53.096;23.226;2023-01-29T08:45:25;100345.09;;;0.17;71.59
56241;BME280;42155;53.096;23.226;2023-01-29T08:47:26;100346.81;;;0.18;72.04
56241;BME280;42155;53.096;23.226;2023-01-29T08:49:26;100321.97;;;0.07;72.34
56241;BME280;42155;53.096;23.226;2023-01-29T08:51:26;100343.47;;;0.13;71.84
56241;BME280;42155;53.096;23.226;2023-01-29T08:53:27;100335.63;;;0.15;72.02
56241;BME280;42155;53.096;23.226;2023-01-29T08:55:27;100307.38;;;-0.01;72.47
56241;BME280;42155;53.096;23.226;2023-01-29T08:57:28;100331.16;;;0.18;72.31
56241;BME280;42155;53.096;23.226;2023-01-29T08:59:28;100325.19;;;0.15;72.10
56241;BME280;42155;53.096;23.226;2023-01-29T09:01:29;100330.97;;;0.24;72.72
56241;BME280;42155;53.096;23.226;2023-01-29T09:03:29;100325.47;;;0.32;72.35
56241;BME280;42155;53.096;23.226;2023-01-29T09:05:29;100331.81;;;0.25;72.46
56241;BME280;42155;53.096;23.226;2023-01-29T09:07:30;100334.28;;;0.30;72.76
56241;BME280;42155;53.096;23.226;2023-01-29T09:09:30;100323.78;;;0.31;72.24
56241;BME280;42155;53.096;23.226;2023-01-29T09:11:30;100322.84;;;0.34;72.62
56241;BME280;42155;53.096;23.226;2023-01-29T09:13:31;100317.75;;;0.29;72.74
56241;BME280;42155;53.096;23.226;2023-01-29T09:15:32;100231.47;;;-0.19;72.66
56241;BME280;42155;53.096;23.226;2023-01-29T09:17:32;100313.31;;;0.33;72.35
56241;BME280;42155;53.096;23.226;2023-01-29T09:19:32;100262.84;;;0.06;72.51
56241;BME280;42155;53.096;23.226;2023-01-29T09:21:33;100303.91;;;0.27;72.37
56241;BME280;42155;53.096;23.226;2023-01-29T09:23:33;100279.97;;;0.14;72.92
56241;BME280;42155;53.096;23.226;2023-01-29T09:25:33;100295.06;;;0.31;72.31
56241;BME280;42155;53.096;23.226;2023-01-29T09:27:34;100297.66;;;0.31;72.57
56241;BME280;42155;53.096;23.226;2023-01-29T09:29:34;100288.09;;;0.32;72.41
56241;BME280;42155;53.096;23.226;2023-01-29T09:31:34;100288.84;;;0.35;72.26
56241;BME280;42155;53.096;23.226;2023-01-29T09:33:35;100281.69;;;0.42;72.58
56241;BME280;42155;53.096;23.226;2023-01-29T09:35:35;100287.75;;;0.42;72.31
56241;BME280;42155;53.096;23.226;2023-01-29T09:37:36;100280.78;;;0.41;73.07
56241;BME280;42155;53.096;23.226;2023-01-29T09:39:36;100285.13;;;0.42;72.76
56241;BME280;42155;53.096;23.226;2023-01-29T09:43:59;100272.63;;;0.52;72.64
56241;BME280;42155;53.096;23.226;2023-01-29T09:46:11;100269.84;;;0.57;72.05
56241;BME280;42155;53.096;23.226;2023-01-29T09:48:14;100260.16;;;0.60;72.59
56241;BME280;42155;53.096;23.226;2023-01-29T09:50:36;100259.94;;;0.66;71.82
56241;BME280;42155;53.096;23.226;2023-01-29T09:52:41;100256.34;;;0.69;72.20
56241;BME280;42155;53.096;23.226;2023-01-29T09:55:14;100252.72;;;0.73;71.64
56241;BME280;42155;53.096;23.226;2023-01-29T09:57:24;100256.25;;;0.72;71.48
56241;BME280;42155;53.096;23.226;2023-01-29T09:59:29;100239.66;;;0.73;71.91
56241;BME280;42155;53.096;23.226;2023-01-29T10:14:40;100235.78;;;0.85;72.02
56241;BME280;42155;53.096;23.226;2023-01-29T10:16:31;100232.25;;;0.86;72.19
56241;BME280;42155;53.096;23.226;2023-01-29T10:21:27;100229.69;;;0.84;71.92
56241;BME280;42155;53.096;23.226;2023-01-29T10:23:32;100238.47;;;0.82;71.92
56241;BME280;42155;53.096;23.226;2023-01-29T10:25:38;100241.19;;;0.79;72.49
56241;BME280;42155;53.096;23.226;2023-01-29T10:27:42;100208.66;;;0.64;72.60
56241;BME280;42155;53.096;23.226;2023-01-29T10:29:46;100236.03;;;0.77;72.89
56241;BME280;42155;53.096;23.226;2023-01-29T10:31:51;100241.09;;;0.82;72.70
56241;BME280;42155;53.096;23.226;2023-01-29T10:33:58;100227.19;;;0.81;72.36
56241;BME280;42155;53.096;23.226;2023-01-29T10:36:04;100232.91;;;0.91;72.26
56241;BME280;42155;53.096;23.226;2023-01-29T10:38:20;100194.91;;;0.59;72.34
56241;BME280;42155;53.096;23.226;2023-01-29T10:40:33;100235.94;;;0.80;72.47
56241;BME280;42155;53.096;23.226;2023-01-29T10:42:41;100226.59;;;0.73;72.92
56241;BME280;42155;53.096;23.226;2023-01-29T11:00:43;100164.66;;;0.53;73.71
56241;BME280;42155;53.096;23.226;2023-01-29T11:02:44;100157.91;;;0.46;73.95
56241;BME280;42155;53.096;23.226;2023-01-29T11:04:45;100154.94;;;0.57;74.20
56241;BME280;42155;53.096;23.226;2023-01-29T11:06:45;100165.41;;;0.57;73.62
56241;BME280;42155;53.096;23.226;2023-01-29T11:11:14;100165.50;;;0.54;74.32
56241;BME280;42155;53.096;23.226;2023-01-29T11:13:15;100162.09;;;0.52;73.71
56241;BME280;42155;53.096;23.226;2023-01-29T11:15:21;100150.00;;;0.49;73.76
56241;BME280;42155;53.096;23.226;2023-01-29T11:17:25;100157.22;;;0.42;74.49
56241;BME280;42155;53.096;23.226;2023-01-29T11:19:39;100115.75;;;0.08;74.00
56241;BME280;42155;53.096;23.226;2023-01-29T11:22:16;100160.84;;;0.38;74.41
56241;BME280;42155;53.096;23.226;2023-01-29T11:24:17;100055.09;;;-0.22;74.12
56241;BME280;42155;53.096;23.226;2023-01-29T11:26:19;100156.34;;;0.42;74.77
56241;BME280;42155;53.096;23.226;2023-01-29T11:28:40;100150.16;;;0.44;74.25
56241;BME280;42155;53.096;23.226;2023-01-29T11:30:41;100146.63;;;0.45;74.66
56241;BME280;42155;53.096;23.226;2023-01-29T11:32:42;100124.31;;;0.37;74.48
56241;BME280;42155;53.096;23.226;2023-01-29T11:37:15;100108.94;;;0.29;74.08
56241;BME280;42155;53.096;23.226;2023-01-29T11:39:20;100100.31;;;0.27;74.80
56241;BME280;42155;53.096;23.226;2023-01-29T11:41:21;100127.09;;;0.32;74.70
56241;BME280;42155;53.096;23.226;2023-01-29T11:43:31;100130.28;;;0.40;74.57
56241;BME280;42155;53.096;23.226;2023-01-29T11:45:32;100098.50;;;0.29;74.97
56241;BME280;42155;53.096;23.226;2023-01-29T11:47:32;100118.94;;;0.41;74.60
56241;BME280;42155;53.096;23.226;2023-01-29T11:49:33;100117.13;;;0.43;75.15
56241;BME280;42155;53.096;23.226;2023-01-29T11:51:36;100124.28;;;0.38;74.82
56241;BME280;42155;53.096;23.226;2023-01-29T11:53:43;100118.16;;;0.39;75.20
56241;BME280;42155;53.096;23.226;2023-01-29T11:55:45;100117.19;;;0.42;75.34
56241;BME280;42155;53.096;23.226;2023-01-29T11:57:49;100105.09;;;0.39;75.46
56241;BME280;42155;53.096;23.226;2023-01-29T11:59:52;100112.25;;;0.34;75.61
56241;BME280;42155;53.096;23.226;2023-01-29T12:01:54;100106.28;;;0.31;75.75